sensor_id;sensor_type;location;lat;lon;timestamp;P1;durP1;ratioP1;P2;durP2;ratioP2
68140;SDS011;54941;52.220;104.306;2023-02-04T00:01:48;111.43;;;43.08;;
68140;SDS011;54941;52.220;104.306;2023-02-04T00:04:15;104.07;;;41.40;;
68140;SDS011;54941;52.220;104.306;2023-02-04T00:06:41;91.80;;;38.97;;
68140;SDS011;54941;52.220;104.306;2023-02-04T00:09:07;88.32;;;34.40;;
68140;SDS011;54941;52.220;104.306;2023-02-04T00:11:34;73.43;;;34.15;;
68140;SDS011;54941;52.220;104.306;2023-02-04T00:14:02;79.05;;;36.15;;
68140;SDS011;54941;52.220;104.306;2023-02-04T00:16:28;95.97;;;38.65;;
68140;SDS011;54941;52.220;104.306;2023-02-04T00:18:55;91.85;;;35.03;;
68140;SDS011;54941;52.220;104.306;2023-02-04T00:21:21;75.88;;;33.10;;
68140;SDS011;54941;52.220;104.306;2023-02-04T00:23:47;86.32;;;38.58;;
68140;SDS011;54941;52.220;104.306;2023-02-04T00:26:14;92.72;;;37.67;;
68140;SDS011;54941;52.220;104.306;2023-02-04T00:28:40;99.50;;;40.97;;
68140;SDS011;54941;52.220;104.306;2023-02-04T00:31:08;103.15;;;40.60;;
68140;SDS011;54941;52.220;104.306;2023-02-04T00:33:34;101.22;;;44.20;;
68140;SDS011;54941;52.220;104.306;2023-02-04T00:36:00;81.68;;;35.63;;
68140;SDS011;54941;52.220;104.306;2023-02-04T00:38:27;99.20;;;38.97;;
68140;SDS011;54941;52.220;104.306;2023-02-04T00:40:53;100.68;;;39.25;;
68140;SDS011;54941;52.220;104.306;2023-02-04T00:43:19;99.50;;;42.13;;
68140;SDS011;54941;52.220;104.306;2023-02-04T00:45:46;91.15;;;38.80;;
68140;SDS011;54941;52.220;104.306;2023-02-04T00:48:14;98.80;;;42.50;;
68140;SDS011;54941;52.220;104.306;2023-02-04T00:50:40;99.90;;;38.53;;
68140;SDS011;54941;52.220;104.306;2023-02-04T00:53:06;84.85;;;32.60;;
68140;SDS011;54941;52.220;104.306;2023-02-04T00:55:32;80.85;;;30.15;;
68140;SDS011;54941;52.220;104.306;2023-02-04T00:57:59;87.88;;;37.47;;
68140;SDS011;54941;52.220;104.306;2023-02-04T01:00:25;92.50;;;35.90;;
68140;SDS011;54941;52.220;104.306;2023-02-04T01:02:52;73.40;;;35.78;;
68140;SDS011;54941;52.220;104.306;2023-02-04T01:05:19;88.75;;;36.97;;
68140;SDS011;54941;52.220;104.306;2023-02-04T01:07:46;86.90;;;36.22;;
68140;SDS011;54941;52.220;104.306;2023-02-04T01:10:12;92.60;;;36.80;;
68140;SDS011;54941;52.220;104.306;2023-02-04T01:12:39;91.85;;;38.72;;
68140;SDS011;54941;52.220;104.306;2023-02-04T01:15:05;90.20;;;38.40;;
68140;SDS011;54941;52.220;104.306;2023-02-04T01:17:32;71.40;;;30.88;;
68140;SDS011;54941;52.220;104.306;2023-02-04T01:19:58;80.10;;;33.85;;
68140;SDS011;54941;52.220;104.306;2023-02-04T01:22:26;93.45;;;38.28;;
68140;SDS011;54941;52.220;104.306;2023-02-04T01:24:52;85.85;;;37.50;;
68140;SDS011;54941;52.220;104.306;2023-02-04T01:27:19;96.40;;;37.25;;
68140;SDS011;54941;52.220;104.306;2023-02-04T01:29:45;79.57;;;35.25;;
68140;SDS011;54941;52.220;104.306;2023-02-04T01:32:11;74.68;;;29.15;;
68140;SDS011;54941;52.220;104.306;2023-02-04T01:34:38;96.28;;;38.15;;
68140;SDS011;54941;52.220;104.306;2023-02-04T01:37:04;95.05;;;38.92;;
68140;SDS011;54941;52.220;104.306;2023-02-04T01:39:32;72.22;;;30.60;;
68140;SDS011;54941;52.220;104.306;2023-02-04T01:41:58;72.20;;;34.58;;
68140;SDS011;54941;52.220;104.306;2023-02-04T01:44:25;59.40;;;28.23;;
68140;SDS011;54941;52.220;104.306;2023-02-04T01:46:51;39.97;;;20.08;;
68140;SDS011;54941;52.220;104.306;2023-02-04T01:49:18;46.35;;;21.00;;
68140;SDS011;54941;52.220;104.306;2023-02-04T01:51:45;43.28;;;18.30;;
68140;SDS011;54941;52.220;104.306;2023-02-04T01:54:12;49.95;;;19.13;;
68140;SDS011;54941;52.220;104.306;2023-02-04T01:56:42;36.08;;;18.50;;
68140;SDS011;54941;52.220;104.306;2023-02-04T02:01:38;71.85;;;32.05;;
68140;SDS011;54941;52.220;104.306;2023-02-04T02:04:05;61.20;;;21.80;;
68140;SDS011;54941;52.220;104.306;2023-02-04T02:06:32;61.42;;;24.05;;
68140;SDS011;54941;52.220;104.306;2023-02-04T02:08:59;34.63;;;15.57;;
68140;SDS011;54941;52.220;104.306;2023-02-04T02:11:26;56.20;;;22.40;;
68140;SDS011;54941;52.220;104.306;2023-02-04T02:13:54;55.17;;;22.98;;
68140;SDS011;54941;52.220;104.306;2023-02-04T02:16:41;62.47;;;29.23;;
68140;SDS011;54941;52.220;104.306;2023-02-04T02:19:08;64.07;;;26.15;;
68140;SDS011;54941;52.220;104.306;2023-02-04T02:21:42;49.97;;;22.55;;
68140;SDS011;54941;52.220;104.306;2023-02-04T02:24:26;31.63;;;16.33;;
68140;SDS011;54941;52.220;104.306;2023-02-04T02:26:54;45.90;;;19.77;;
68140;SDS011;54941;52.220;104.306;2023-02-04T02:29:22;54.28;;;23.27;;
68140;SDS011;54941;52.220;104.306;2023-02-04T02:31:49;45.92;;;19.98;;
68140;SDS011;54941;52.220;104.306;2023-02-04T02:34:16;19.33;;;10.68;;
68140;SDS011;54941;52.220;104.306;2023-02-04T02:36:42;60.97;;;26.38;;
68140;SDS011;54941;52.220;104.306;2023-02-04T02:39:09;59.50;;;24.02;;
68140;SDS011;54941;52.220;104.306;2023-02-04T02:41:37;59.42;;;23.15;;
68140;SDS011;54941;52.220;104.306;2023-02-04T02:44:04;56.97;;;24.48;;
68140;SDS011;54941;52.220;104.306;2023-02-04T02:46:31;32.28;;;16.05;;
68140;SDS011;54941;52.220;104.306;2023-02-04T02:48:58;51.75;;;21.95;;
68140;SDS011;54941;52.220;104.306;2023-02-04T02:51:24;62.85;;;26.23;;
68140;SDS011;54941;52.220;104.306;2023-02-04T02:53:51;32.55;;;14.60;;
68140;SDS011;54941;52.220;104.306;2023-02-04T02:56:17;35.80;;;16.50;;
68140;SDS011;54941;52.220;104.306;2023-02-04T02:58:46;33.28;;;15.75;;
68140;SDS011;54941;52.220;104.306;2023-02-04T03:01:12;41.42;;;19.33;;
68140;SDS011;54941;52.220;104.306;2023-02-04T03:03:39;39.42;;;18.42;;
68140;SDS011;54941;52.220;104.306;2023-02-04T03:06:10;42.85;;;19.27;;
68140;SDS011;54941;52.220;104.306;2023-02-04T03:08:40;31.73;;;15.93;;
68140;SDS011;54941;52.220;104.306;2023-02-04T03:11:08;58.40;;;24.08;;
68140;SDS011;54941;52.220;104.306;2023-02-04T03:13:35;60.03;;;24.33;;
68140;SDS011;54941;52.220;104.306;2023-02-04T03:16:03;58.40;;;24.52;;
68140;SDS011;54941;52.220;104.306;2023-02-04T03:18:31;71.18;;;23.40;;
68140;SDS011;54941;52.220;104.306;2023-02-04T03:20:57;42.60;;;18.38;;
68140;SDS011;54941;52.220;104.306;2023-02-04T03:23:24;70.82;;;26.67;;
68140;SDS011;54941;52.220;104.306;2023-02-04T03:25:51;63.42;;;25.05;;
68140;SDS011;54941;52.220;104.306;2023-02-04T03:28:17;64.47;;;26.65;;
68140;SDS011;54941;52.220;104.306;2023-02-04T03:30:43;45.60;;;20.85;;
68140;SDS011;54941;52.220;104.306;2023-02-04T03:33:11;67.45;;;33.15;;
68140;SDS011;54941;52.220;104.306;2023-02-04T03:35:38;34.28;;;18.13;;
68140;SDS011;54941;52.220;104.306;2023-02-04T03:38:06;49.47;;;21.80;;
68140;SDS011;54941;52.220;104.306;2023-02-04T03:40:32;50.50;;;19.65;;
68140;SDS011;54941;52.220;104.306;2023-02-04T03:42:58;28.27;;;13.45;;
68140;SDS011;54941;52.220;104.306;2023-02-04T03:45:25;49.83;;;19.88;;
68140;SDS011;54941;52.220;104.306;2023-02-04T03:47:51;39.65;;;16.70;;
68140;SDS011;54941;52.220;104.306;2023-02-04T03:50:19;50.75;;;23.63;;
68140;SDS011;54941;52.220;104.306;2023-02-04T03:52:45;35.95;;;17.63;;
68140;SDS011;54941;52.220;104.306;2023-02-04T03:55:11;55.00;;;25.83;;
68140;SDS011;54941;52.220;104.306;2023-02-04T03:57:38;33.97;;;15.80;;
68140;SDS011;54941;52.220;104.306;2023-02-04T04:00:04;50.55;;;24.90;;
68140;SDS011;54941;52.220;104.306;2023-02-04T04:02:31;54.47;;;24.83;;
68140;SDS011;54941;52.220;104.306;2023-02-04T04:04:58;41.47;;;20.42;;
68140;SDS011;54941;52.220;104.306;2023-02-04T04:07:26;43.17;;;21.40;;
68140;SDS011;54941;52.220;104.306;2023-02-04T04:09:52;50.60;;;21.90;;
68140;SDS011;54941;52.220;104.306;2023-02-04T04:12:19;58.70;;;25.65;;
68140;SDS011;54941;52.220;104.306;2023-02-04T04:14:45;56.53;;;25.25;;
68140;SDS011;54941;52.220;104.306;2023-02-04T04:17:11;69.03;;;30.05;;
68140;SDS011;54941;52.220;104.306;2023-02-04T04:19:38;64.55;;;26.58;;
68140;SDS011;54941;52.220;104.306;2023-02-04T04:22:04;52.35;;;22.70;;
68140;SDS011;54941;52.220;104.306;2023-02-04T04:24:32;57.70;;;25.95;;
68140;SDS011;54941;52.220;104.306;2023-02-04T04:26:58;47.72;;;22.83;;
68140;SDS011;54941;52.220;104.306;2023-02-04T04:29:25;41.50;;;18.58;;
68140;SDS011;54941;52.220;104.306;2023-02-04T04:31:51;59.33;;;23.70;;
68140;SDS011;54941;52.220;104.306;2023-02-04T04:34:18;78.82;;;34.20;;
68140;SDS011;54941;52.220;104.306;2023-02-04T04:36:44;88.60;;;36.10;;
68140;SDS011;54941;52.220;104.306;2023-02-04T04:39:10;81.85;;;36.50;;
68140;SDS011;54941;52.220;104.306;2023-02-04T04:41:38;68.88;;;30.02;;
68140;SDS011;54941;52.220;104.306;2023-02-04T04:44:05;48.58;;;22.08;;
68140;SDS011;54941;52.220;104.306;2023-02-04T04:46:31;57.90;;;28.52;;
68140;SDS011;54941;52.220;104.306;2023-02-04T04:48:58;61.47;;;29.52;;
68140;SDS011;54941;52.220;104.306;2023-02-04T04:51:24;34.53;;;16.30;;
68140;SDS011;54941;52.220;104.306;2023-02-04T04:53:51;82.00;;;33.03;;
68140;SDS011;54941;52.220;104.306;2023-02-04T04:56:17;84.55;;;33.75;;
68140;SDS011;54941;52.220;104.306;2023-02-04T04:58:45;56.78;;;24.65;;
68140;SDS011;54941;52.220;104.306;2023-02-04T05:01:11;48.95;;;24.33;;
68140;SDS011;54941;52.220;104.306;2023-02-04T05:03:37;52.85;;;23.60;;
68140;SDS011;54941;52.220;104.306;2023-02-04T05:06:04;55.92;;;24.15;;
68140;SDS011;54941;52.220;104.306;2023-02-04T05:08:30;53.08;;;22.33;;
68140;SDS011;54941;52.220;104.306;2023-02-04T05:10:57;57.15;;;25.38;;
68140;SDS011;54941;52.220;104.306;2023-02-04T05:13:23;37.75;;;16.52;;
68140;SDS011;54941;52.220;104.306;2023-02-04T05:15:51;54.88;;;21.80;;
68140;SDS011;54941;52.220;104.306;2023-02-04T05:18:17;54.28;;;24.48;;
68140;SDS011;54941;52.220;104.306;2023-02-04T05:20:44;37.63;;;16.35;;
68140;SDS011;54941;52.220;104.306;2023-02-04T05:23:10;60.72;;;23.95;;
68140;SDS011;54941;52.220;104.306;2023-02-04T05:25:37;67.07;;;28.75;;
68140;SDS011;54941;52.220;104.306;2023-02-04T05:28:03;46.45;;;20.05;;
68140;SDS011;54941;52.220;104.306;2023-02-04T05:30:30;59.80;;;25.05;;
68140;SDS011;54941;52.220;104.306;2023-02-04T05:32:58;49.67;;;23.83;;
68140;SDS011;54941;52.220;104.306;2023-02-04T05:35:24;58.95;;;25.75;;
68140;SDS011;54941;52.220;104.306;2023-02-04T05:37:50;50.70;;;23.20;;
68140;SDS011;54941;52.220;104.306;2023-02-04T05:40:17;47.47;;;23.02;;
68140;SDS011;54941;52.220;104.306;2023-02-04T05:42:43;54.15;;;23.98;;
68140;SDS011;54941;52.220;104.306;2023-02-04T05:45:10;56.65;;;24.50;;
68140;SDS011;54941;52.220;104.306;2023-02-04T05:47:39;54.53;;;24.38;;
68140;SDS011;54941;52.220;104.306;2023-02-04T05:50:07;47.22;;;20.77;;
68140;SDS011;54941;52.220;104.306;2023-02-04T05:52:34;59.30;;;22.75;;
68140;SDS011;54941;52.220;104.306;2023-02-04T05:55:01;59.22;;;22.08;;
68140;SDS011;54941;52.220;104.306;2023-02-04T05:57:28;51.20;;;22.50;;
68140;SDS011;54941;52.220;104.306;2023-02-04T05:59:54;53.75;;;23.25;;
68140;SDS011;54941;52.220;104.306;2023-02-04T06:02:21;50.90;;;20.15;;
68140;SDS011;54941;52.220;104.306;2023-02-04T06:04:47;58.97;;;23.15;;
68140;SDS011;54941;52.220;104.306;2023-02-04T06:07:15;54.30;;;21.52;;
68140;SDS011;54941;52.220;104.306;2023-02-04T06:09:41;49.58;;;19.23;;
68140;SDS011;54941;52.220;104.306;2023-02-04T06:12:08;30.60;;;13.82;;
68140;SDS011;54941;52.220;104.306;2023-02-04T06:14:34;48.35;;;20.10;;
68140;SDS011;54941;52.220;104.306;2023-02-04T06:17:00;43.47;;;18.25;;
68140;SDS011;54941;52.220;104.306;2023-02-04T06:19:27;45.00;;;19.02;;
68140;SDS011;54941;52.220;104.306;2023-02-04T06:21:53;20.80;;;11.60;;
68140;SDS011;54941;52.220;104.306;2023-02-04T06:24:21;30.60;;;14.75;;
68140;SDS011;54941;52.220;104.306;2023-02-04T06:26:47;34.03;;;15.00;;
68140;SDS011;54941;52.220;104.306;2023-02-04T06:29:14;30.40;;;14.45;;
68140;SDS011;54941;52.220;104.306;2023-02-04T06:31:40;30.58;;;13.73;;
68140;SDS011;54941;52.220;104.306;2023-02-04T06:34:06;31.52;;;13.75;;
68140;SDS011;54941;52.220;104.306;2023-02-04T06:36:33;34.80;;;15.98;;
68140;SDS011;54941;52.220;104.306;2023-02-04T06:38:59;31.02;;;12.73;;
68140;SDS011;54941;52.220;104.306;2023-02-04T06:41:27;30.02;;;12.80;;
68140;SDS011;54941;52.220;104.306;2023-02-04T06:43:53;18.70;;;8.10;;
68140;SDS011;54941;52.220;104.306;2023-02-04T06:46:20;26.50;;;12.25;;
68140;SDS011;54941;52.220;104.306;2023-02-04T06:48:46;31.25;;;12.75;;
68140;SDS011;54941;52.220;104.306;2023-02-04T06:51:12;28.25;;;10.57;;
68140;SDS011;54941;52.220;104.306;2023-02-04T06:53:39;28.50;;;12.27;;
68140;SDS011;54941;52.220;104.306;2023-02-04T06:56:05;31.15;;;13.02;;
68140;SDS011;54941;52.220;104.306;2023-02-04T06:58:33;40.42;;;15.10;;
68140;SDS011;54941;52.220;104.306;2023-02-04T07:00:59;41.22;;;18.48;;
68140;SDS011;54941;52.220;104.306;2023-02-04T07:03:26;38.85;;;16.73;;
68140;SDS011;54941;52.220;104.306;2023-02-04T07:05:52;41.83;;;16.88;;
68140;SDS011;54941;52.220;104.306;2023-02-04T07:08:18;41.47;;;18.38;;
68140;SDS011;54941;52.220;104.306;2023-02-04T07:10:45;36.17;;;16.05;;
68140;SDS011;54941;52.220;104.306;2023-02-04T07:13:11;25.65;;;11.90;;
68140;SDS011;54941;52.220;104.306;2023-02-04T07:15:39;67.97;;;32.33;;
68140;SDS011;54941;52.220;104.306;2023-02-04T07:18:05;33.95;;;16.30;;
68140;SDS011;54941;52.220;104.306;2023-02-04T07:22:58;49.70;;;19.25;;
68140;SDS011;54941;52.220;104.306;2023-02-04T07:25:24;47.38;;;20.10;;
68140;SDS011;54941;52.220;104.306;2023-02-04T07:27:50;50.08;;;22.63;;
68140;SDS011;54941;52.220;104.306;2023-02-04T07:30:17;49.08;;;21.38;;
68140;SDS011;54941;52.220;104.306;2023-02-04T07:32:45;45.05;;;19.70;;
68140;SDS011;54941;52.220;104.306;2023-02-04T07:35:11;47.85;;;21.20;;
68140;SDS011;54941;52.220;104.306;2023-02-04T07:37:37;44.30;;;19.95;;
68140;SDS011;54941;52.220;104.306;2023-02-04T07:40:04;35.17;;;16.85;;
68140;SDS011;54941;52.220;104.306;2023-02-04T07:42:31;41.75;;;18.25;;
68140;SDS011;54941;52.220;104.306;2023-02-04T07:44:57;52.60;;;20.77;;
68140;SDS011;54941;52.220;104.306;2023-02-04T07:47:23;43.15;;;17.85;;
68140;SDS011;54941;52.220;104.306;2023-02-04T07:49:51;48.08;;;21.23;;
68140;SDS011;54941;52.220;104.306;2023-02-04T07:52:18;48.50;;;21.10;;
68140;SDS011;54941;52.220;104.306;2023-02-04T07:54:44;40.45;;;18.65;;
68140;SDS011;54941;52.220;104.306;2023-02-04T07:57:10;46.55;;;20.67;;
68140;SDS011;54941;52.220;104.306;2023-02-04T07:59:37;44.58;;;19.50;;
68140;SDS011;54941;52.220;104.306;2023-02-04T08:02:03;48.03;;;21.33;;
68140;SDS011;54941;52.220;104.306;2023-02-04T08:04:29;44.55;;;17.65;;
68140;SDS011;54941;52.220;104.306;2023-02-04T08:06:57;42.22;;;17.65;;
68140;SDS011;54941;52.220;104.306;2023-02-04T08:09:24;45.97;;;19.52;;
68140;SDS011;54941;52.220;104.306;2023-02-04T08:11:50;47.25;;;19.85;;
68140;SDS011;54941;52.220;104.306;2023-02-04T08:14:17;47.20;;;17.70;;
68140;SDS011;54941;52.220;104.306;2023-02-04T08:16:43;39.42;;;17.30;;
68140;SDS011;54941;52.220;104.306;2023-02-04T08:19:10;39.85;;;18.05;;
68140;SDS011;54941;52.220;104.306;2023-02-04T08:21:36;38.22;;;18.83;;
68140;SDS011;54941;52.220;104.306;2023-02-04T08:24:04;40.80;;;19.20;;
68140;SDS011;54941;52.220;104.306;2023-02-04T08:26:30;52.03;;;20.88;;
68140;SDS011;54941;52.220;104.306;2023-02-04T08:28:57;47.55;;;21.38;;
68140;SDS011;54941;52.220;104.306;2023-02-04T08:31:23;57.38;;;25.20;;
68140;SDS011;54941;52.220;104.306;2023-02-04T08:33:49;59.10;;;24.55;;
68140;SDS011;54941;52.220;104.306;2023-02-04T08:36:16;46.70;;;22.80;;
68140;SDS011;54941;52.220;104.306;2023-02-04T08:38:42;53.53;;;23.23;;
68140;SDS011;54941;52.220;104.306;2023-02-04T08:41:10;50.67;;;22.85;;
68140;SDS011;54941;52.220;104.306;2023-02-04T08:43:36;50.88;;;22.33;;
68140;SDS011;54941;52.220;104.306;2023-02-04T08:46:03;43.53;;;20.15;;
68140;SDS011;54941;52.220;104.306;2023-02-04T08:48:29;46.50;;;19.52;;
68140;SDS011;54941;52.220;104.306;2023-02-04T08:50:56;49.00;;;21.02;;
68140;SDS011;54941;52.220;104.306;2023-02-04T08:53:22;45.60;;;19.88;;
68140;SDS011;54941;52.220;104.306;2023-02-04T08:55:48;62.17;;;24.70;;
68140;SDS011;54941;52.220;104.306;2023-02-04T08:58:16;72.57;;;28.23;;
68140;SDS011;54941;52.220;104.306;2023-02-04T09:00:43;57.47;;;25.00;;
68140;SDS011;54941;52.220;104.306;2023-02-04T09:03:09;52.55;;;23.35;;
68140;SDS011;54941;52.220;104.306;2023-02-04T09:05:35;55.97;;;22.77;;
68140;SDS011;54941;52.220;104.306;2023-02-04T09:08:02;42.83;;;18.52;;
68140;SDS011;54941;52.220;104.306;2023-02-04T09:10:28;43.90;;;20.23;;
68140;SDS011;54941;52.220;104.306;2023-02-04T09:12:55;41.80;;;18.45;;
68140;SDS011;54941;52.220;104.306;2023-02-04T09:15:23;40.05;;;18.65;;
68140;SDS011;54941;52.220;104.306;2023-02-04T09:17:49;46.47;;;21.05;;
68140;SDS011;54941;52.220;104.306;2023-02-04T09:20:16;36.78;;;16.10;;
68140;SDS011;54941;52.220;104.306;2023-02-04T09:22:43;46.10;;;17.27;;
68140;SDS011;54941;52.220;104.306;2023-02-04T09:25:09;39.53;;;17.85;;
68140;SDS011;54941;52.220;104.306;2023-02-04T09:27:35;48.08;;;20.63;;
68140;SDS011;54941;52.220;104.306;2023-02-04T09:30:02;49.20;;;18.35;;
68140;SDS011;54941;52.220;104.306;2023-02-04T09:32:30;41.95;;;18.27;;
68140;SDS011;54941;52.220;104.306;2023-02-04T09:34:58;51.65;;;20.35;;
68140;SDS011;54941;52.220;104.306;2023-02-04T09:37:24;50.05;;;21.85;;
68140;SDS011;54941;52.220;104.306;2023-02-04T09:39:50;41.10;;;19.35;;
68140;SDS011;54941;52.220;104.306;2023-02-04T09:42:17;56.28;;;21.77;;
68140;SDS011;54941;52.220;104.306;2023-02-04T09:44:44;44.03;;;18.08;;
68140;SDS011;54941;52.220;104.306;2023-02-04T09:47:10;47.28;;;21.77;;
68140;SDS011;54941;52.220;104.306;2023-02-04T09:49:39;45.90;;;20.88;;
68140;SDS011;54941;52.220;104.306;2023-02-04T09:52:09;44.45;;;19.85;;
68140;SDS011;54941;52.220;104.306;2023-02-04T09:54:37;42.30;;;20.88;;
68140;SDS011;54941;52.220;104.306;2023-02-04T09:57:06;48.00;;;19.23;;
68140;SDS011;54941;52.220;104.306;2023-02-04T09:59:38;48.85;;;21.88;;
68140;SDS011;54941;52.220;104.306;2023-02-04T10:02:06;50.35;;;20.30;;
68140;SDS011;54941;52.220;104.306;2023-02-04T10:04:46;49.40;;;21.38;;
68140;SDS011;54941;52.220;104.306;2023-02-04T10:07:13;45.88;;;20.85;;
68140;SDS011;54941;52.220;104.306;2023-02-04T10:09:43;39.65;;;18.92;;
68140;SDS011;54941;52.220;104.306;2023-02-04T10:12:09;49.63;;;21.55;;
68140;SDS011;54941;52.220;104.306;2023-02-04T10:14:36;48.08;;;20.42;;
68140;SDS011;54941;52.220;104.306;2023-02-04T10:17:02;53.78;;;22.88;;
68140;SDS011;54941;52.220;104.306;2023-02-04T10:19:29;43.65;;;18.67;;
68140;SDS011;54941;52.220;104.306;2023-02-04T10:21:57;49.15;;;21.45;;
68140;SDS011;54941;52.220;104.306;2023-02-04T10:24:24;46.85;;;20.02;;
68140;SDS011;54941;52.220;104.306;2023-02-04T10:26:52;55.97;;;23.48;;
68140;SDS011;54941;52.220;104.306;2023-02-04T10:29:19;53.95;;;23.65;;
68140;SDS011;54941;52.220;104.306;2023-02-04T10:31:47;52.90;;;26.58;;
68140;SDS011;54941;52.220;104.306;2023-02-04T10:34:15;60.92;;;25.08;;
68140;SDS011;54941;52.220;104.306;2023-02-04T10:36:44;56.47;;;22.65;;
68140;SDS011;54941;52.220;104.306;2023-02-04T10:39:14;69.13;;;30.08;;
68140;SDS011;54941;52.220;104.306;2023-02-04T10:41:46;43.70;;;20.42;;
68140;SDS011;54941;52.220;104.306;2023-02-04T10:44:14;73.90;;;29.90;;
68140;SDS011;54941;52.220;104.306;2023-02-04T10:46:42;56.08;;;26.48;;
68140;SDS011;54941;52.220;104.306;2023-02-04T10:49:18;55.53;;;26.42;;
68140;SDS011;54941;52.220;104.306;2023-02-04T10:51:46;61.75;;;23.17;;
68140;SDS011;54941;52.220;104.306;2023-02-04T10:54:15;49.75;;;21.63;;
68140;SDS011;54941;52.220;104.306;2023-02-04T10:59:12;61.58;;;26.23;;
68140;SDS011;54941;52.220;104.306;2023-02-04T11:01:45;65.25;;;27.65;;
68140;SDS011;54941;52.220;104.306;2023-02-04T11:04:11;68.90;;;29.75;;
68140;SDS011;54941;52.220;104.306;2023-02-04T11:06:38;72.53;;;28.42;;
68140;SDS011;54941;52.220;104.306;2023-02-04T11:09:04;57.80;;;26.15;;
68140;SDS011;54941;52.220;104.306;2023-02-04T11:11:32;55.85;;;23.83;;
68140;SDS011;54941;52.220;104.306;2023-02-04T11:13:59;59.35;;;24.80;;
68140;SDS011;54941;52.220;104.306;2023-02-04T11:16:27;60.75;;;24.30;;
68140;SDS011;54941;52.220;104.306;2023-02-04T11:18:55;77.47;;;29.63;;
68140;SDS011;54941;52.220;104.306;2023-02-04T11:21:24;58.92;;;27.83;;
68140;SDS011;54941;52.220;104.306;2023-02-04T11:24:02;58.63;;;25.10;;
68140;SDS011;54941;52.220;104.306;2023-02-04T11:26:35;59.40;;;29.15;;
68140;SDS011;54941;52.220;104.306;2023-02-04T11:31:58;64.03;;;27.58;;
68140;SDS011;54941;52.220;104.306;2023-02-04T11:34:28;62.88;;;27.52;;
68140;SDS011;54941;52.220;104.306;2023-02-04T11:37:05;57.08;;;25.60;;
68140;SDS011;54941;52.220;104.306;2023-02-04T11:39:51;59.00;;;25.95;;
68140;SDS011;54941;52.220;104.306;2023-02-04T11:42:20;59.35;;;24.38;;
68140;SDS011;54941;52.220;104.306;2023-02-04T11:44:49;77.03;;;30.30;;
68140;SDS011;54941;52.220;104.306;2023-02-04T11:47:17;61.33;;;26.83;;
68140;SDS011;54941;52.220;104.306;2023-02-04T11:49:44;71.28;;;29.65;;
68140;SDS011;54941;52.220;104.306;2023-02-04T11:52:17;79.82;;;32.25;;
68140;SDS011;54941;52.220;104.306;2023-02-04T11:54:51;55.70;;;26.38;;
68140;SDS011;54941;52.220;104.306;2023-02-04T11:57:20;53.38;;;21.50;;
68140;SDS011;54941;52.220;104.306;2023-02-04T11:59:46;58.20;;;21.35;;
68140;SDS011;54941;52.220;104.306;2023-02-04T12:02:14;55.63;;;24.83;;
68140;SDS011;54941;52.220;104.306;2023-02-04T12:04:49;84.03;;;33.47;;
68140;SDS011;54941;52.220;104.306;2023-02-04T12:07:19;74.10;;;29.05;;
68140;SDS011;54941;52.220;104.306;2023-02-04T12:09:48;64.22;;;26.35;;
68140;SDS011;54941;52.220;104.306;2023-02-04T12:12:23;72.97;;;26.58;;
68140;SDS011;54941;52.220;104.306;2023-02-04T12:17:38;82.82;;;33.88;;
68140;SDS011;54941;52.220;104.306;2023-02-04T12:20:04;67.82;;;32.58;;
68140;SDS011;54941;52.220;104.306;2023-02-04T12:22:31;79.78;;;34.95;;
68140;SDS011;54941;52.220;104.306;2023-02-04T12:24:57;55.55;;;25.80;;
68140;SDS011;54941;52.220;104.306;2023-02-04T12:27:25;47.33;;;22.00;;
68140;SDS011;54941;52.220;104.306;2023-02-04T12:29:52;55.95;;;25.10;;
68140;SDS011;54941;52.220;104.306;2023-02-04T12:32:18;75.63;;;29.73;;
68140;SDS011;54941;52.220;104.306;2023-02-04T12:34:44;62.92;;;29.30;;
68140;SDS011;54941;52.220;104.306;2023-02-04T12:37:11;76.95;;;28.75;;
68140;SDS011;54941;52.220;104.306;2023-02-04T12:39:37;81.45;;;32.97;;
68140;SDS011;54941;52.220;104.306;2023-02-04T12:42:03;88.97;;;35.13;;
68140;SDS011;54941;52.220;104.306;2023-02-04T12:44:31;65.00;;;27.52;;
68140;SDS011;54941;52.220;104.306;2023-02-04T12:46:58;66.05;;;24.42;;
68140;SDS011;54941;52.220;104.306;2023-02-04T12:49:24;61.00;;;27.42;;
68140;SDS011;54941;52.220;104.306;2023-02-04T12:51:50;57.80;;;25.05;;
68140;SDS011;54941;52.220;104.306;2023-02-04T12:54:17;40.50;;;21.75;;
68140;SDS011;54941;52.220;104.306;2023-02-04T12:56:43;64.63;;;29.40;;
68140;SDS011;54941;52.220;104.306;2023-02-04T12:59:09;68.05;;;29.80;;
68140;SDS011;54941;52.220;104.306;2023-02-04T13:01:37;74.43;;;30.95;;
68140;SDS011;54941;52.220;104.306;2023-02-04T13:04:04;58.47;;;25.08;;
68140;SDS011;54941;52.220;104.306;2023-02-04T13:06:30;63.90;;;30.88;;
68140;SDS011;54941;52.220;104.306;2023-02-04T13:08:56;57.65;;;26.92;;
68140;SDS011;54941;52.220;104.306;2023-02-04T13:11:23;53.83;;;24.23;;
68140;SDS011;54941;52.220;104.306;2023-02-04T13:13:49;54.05;;;21.95;;
68140;SDS011;54941;52.220;104.306;2023-02-04T13:16:15;53.60;;;23.55;;
68140;SDS011;54941;52.220;104.306;2023-02-04T13:18:43;60.70;;;25.98;;
68140;SDS011;54941;52.220;104.306;2023-02-04T13:21:10;60.08;;;25.42;;
68140;SDS011;54941;52.220;104.306;2023-02-04T13:23:36;58.30;;;24.83;;
68140;SDS011;54941;52.220;104.306;2023-02-04T13:26:02;62.22;;;26.63;;
68140;SDS011;54941;52.220;104.306;2023-02-04T13:28:29;40.05;;;20.92;;
68140;SDS011;54941;52.220;104.306;2023-02-04T13:30:55;48.30;;;16.52;;
68140;SDS011;54941;52.220;104.306;2023-02-04T13:33:21;44.90;;;21.40;;
68140;SDS011;54941;52.220;104.306;2023-02-04T13:35:50;50.50;;;20.90;;
68140;SDS011;54941;52.220;104.306;2023-02-04T13:38:16;65.68;;;26.30;;
68140;SDS011;54941;52.220;104.306;2023-02-04T13:40:44;68.55;;;28.48;;
68140;SDS011;54941;52.220;104.306;2023-02-04T13:43:10;55.47;;;24.17;;
68140;SDS011;54941;52.220;104.306;2023-02-04T13:45:36;47.40;;;21.77;;
68140;SDS011;54941;52.220;104.306;2023-02-04T13:48:03;48.53;;;21.02;;
68140;SDS011;54941;52.220;104.306;2023-02-04T13:50:29;50.33;;;21.77;;
68140;SDS011;54941;52.220;104.306;2023-02-04T13:52:57;49.97;;;23.65;;
68140;SDS011;54941;52.220;104.306;2023-02-04T13:55:23;55.28;;;23.27;;
68140;SDS011;54941;52.220;104.306;2023-02-04T13:57:49;48.08;;;22.30;;
68140;SDS011;54941;52.220;104.306;2023-02-04T14:00:16;48.72;;;19.15;;
68140;SDS011;54941;52.220;104.306;2023-02-04T14:02:43;54.08;;;23.67;;
68140;SDS011;54941;52.220;104.306;2023-02-04T14:05:09;46.58;;;23.80;;
68140;SDS011;54941;52.220;104.306;2023-02-04T14:07:35;48.60;;;23.52;;
68140;SDS011;54941;52.220;104.306;2023-02-04T14:10:04;52.13;;;22.77;;